Time;durP1;ratioP1;P1;durP2;ratioP2;P2;SDS_P1;SDS_P2;PMS_P1;PMS_P2;Temp;Humidity;BMP_temperature;BMP_pressure;BME280_temperature;BME280_humidity;BME280_pressure;Samples;Min_cycle;Max_cycle;Signal;HPM_P1;HPM_P2
2021/12/14 00:00:02;;;;;;;10.75;4.90;;;;;;;16.22;64.85;101359.66;4901130;29;20032;-90
2021/12/14 00:02:28;;;;;;;11.75;4.60;;;;;;;16.29;64.94;101367.13;4900778;29;20033;-91
2021/12/14 00:04:58;;;;;;;11.02;4.35;;;;;;;16.01;65.20;101361.28;4900945;29;20040;-90
2021/12/14 00:07:24;;;;;;;17.05;5.20;;;;;;;16.11;65.12;101364.91;4901131;29;20021;-90
2021/12/14 00:09:52;;;;;;;12.00;5.25;;;;;;;16.10;65.39;101376.50;4900895;29;20021;-91
2021/12/14 00:12:36;;;;;;;12.98;5.13;;;;;;;15.96;65.48;101382.00;4899157;29;20119;-90
2021/12/14 00:15:10;;;;;;;9.25;5.15;;;;;;;15.98;65.35;101375.63;4899532;29;20035;-90
2021/12/14 00:17:46;;;;;;;10.20;3.85;;;;;;;16.09;65.76;101368.66;4900932;29;20382;-90
2021/12/14 00:20:35;;;;;;;11.43;5.35;;;;;;;16.06;65.38;101377.69;4900843;29;20040;-90
2021/12/14 00:25:33;;;;;;;9.95;4.35;;;;;;;16.18;65.49;101375.91;4898910;29;20013;-90
2021/12/14 00:28:07;;;;;;;14.82;5.20;;;;;;;15.95;65.77;101380.28;4900517;29;20438;-90
2021/12/14 00:30:35;;;;;;;9.55;4.25;;;;;;;16.03;65.60;101380.56;4900693;29;20029;-90
2021/12/14 00:33:02;;;;;;;11.38;5.03;;;;;;;16.10;65.25;101373.84;4900738;29;20373;-90
2021/12/14 00:35:28;;;;;;;11.98;4.80;;;;;;;16.05;65.56;101376.00;4900566;29;20028;-90
2021/12/14 00:37:54;;;;;;;14.48;4.78;;;;;;;16.04;65.67;101369.84;4900414;29;20043;-90
2021/12/14 00:40:30;;;;;;;14.02;5.22;;;;;;;16.00;65.65;101375.50;4898846;29;20508;-91
2021/12/14 00:42:58;;;;;;;9.25;5.15;;;;;;;15.90;65.72;101372.72;4900463;29;20068;-90
2021/12/14 00:45:26;;;;;;;7.53;5.00;;;;;;;15.94;66.18;101374.16;4900370;29;20072;-90
2021/12/14 00:47:52;;;;;;;8.90;4.45;;;;;;;16.06;65.44;101383.00;4899958;29;20093;-90
2021/12/14 00:50:19;;;;;;;11.63;5.25;;;;;;;15.99;65.50;101381.75;4900108;29;20035;-90
2021/12/14 00:52:47;;;;;;;11.73;4.90;;;;;;;16.07;65.35;101379.38;4900152;29;20036;-90
2021/12/14 00:55:25;;;;;;;9.55;4.55;;;;;;;16.03;64.91;101386.72;4893567;29;20025;-90
2021/12/14 00:57:52;;;;;;;10.13;4.35;;;;;;;16.06;65.34;101377.69;4881579;29;20400;-90
2021/12/14 01:00:22;;;;;;;17.08;5.60;;;;;;;16.02;65.31;101381.53;4880874;29;20039;-90
2021/12/14 01:02:48;;;;;;;16.05;5.10;;;;;;;15.99;65.02;101373.81;4879943;29;20096;-90
2021/12/14 01:05:20;;;;;;;12.75;4.60;;;;;;;16.02;65.33;101376.22;4880411;29;20536;-90
2021/12/14 01:07:46;;;;;;;9.52;4.70;;;;;;;16.03;65.67;101378.78;4881238;29;20365;-90
2021/12/14 01:10:21;;;;;;;9.13;4.93;;;;;;;15.85;65.64;101374.84;4881910;29;20031;-90
2021/12/14 01:12:51;;;;;;;16.02;5.28;;;;;;;15.97;65.31;101370.44;4880807;29;20025;-91
2021/12/14 01:15:31;;;;;;;12.18;5.45;;;;;;;15.84;65.50;101374.00;4879607;29;20024;-91
2021/12/14 01:21:20;;;;;;;10.55;4.60;;;;;;;15.81;65.01;101378.69;4886779;29;20053;-90
2021/12/14 01:23:47;;;;;;;13.68;5.63;;;;;;;15.71;65.66;101383.78;4880804;29;20174;-90
2021/12/14 01:26:18;;;;;;;11.55;4.93;;;;;;;15.72;65.69;101392.56;4893410;29;20040;-91
2021/12/14 01:28:45;;;;;;;9.10;5.40;;;;;;;15.64;66.10;101382.56;4899550;29;20031;-91
2021/12/14 01:31:28;;;;;;;19.65;5.40;;;;;;;15.65;67.01;101382.44;4898088;29;20287;-90
2021/12/14 01:33:59;;;;;;;19.13;6.05;;;;;;;15.60;67.00;101381.06;4899132;29;20039;-90
2021/12/14 01:36:40;;;;;;;14.32;5.95;;;;;;;15.64;66.45;101383.41;4898318;29;20108;-91
2021/12/14 01:42:12;;;;;;;13.15;5.18;;;;;;;15.67;66.93;101388.44;4883494;29;20532;-90
2021/12/14 01:44:51;;;;;;;13.45;5.50;;;;;;;15.77;66.72;101385.16;4879943;29;20068;-90
2021/12/14 01:47:40;;;;;;;14.82;5.97;;;;;;;15.70;66.76;101381.25;4880551;29;20029;-90
2021/12/14 01:50:10;;;;;;;13.90;5.53;;;;;;;15.78;66.97;101393.00;4880132;29;20053;-90
2021/12/14 01:52:36;;;;;;;17.25;5.38;;;;;;;15.89;66.71;101397.47;4880187;29;20033;-91
2021/12/14 01:55:22;;;;;;;9.65;5.10;;;;;;;15.96;66.74;101397.88;4881881;29;20032;-90
2021/12/14 01:57:49;;;;;;;22.50;5.07;;;;;;;15.83;66.93;101398.78;4880251;29;20032;-90
2021/12/14 02:00:20;;;;;;;14.45;5.00;;;;;;;15.97;66.31;101405.69;4880230;29;20522;-90
2021/12/14 02:02:47;;;;;;;14.27;4.90;;;;;;;15.88;66.57;101402.88;4880063;29;20436;-91
2021/12/14 02:05:26;;;;;;;10.23;5.38;;;;;;;15.92;66.29;101409.69;4879976;29;20017;-91
2021/12/14 02:07:53;;;;;;;15.48;5.03;;;;;;;15.97;66.31;101404.88;4879922;29;20555;-91
2021/12/14 02:10:32;;;;;;;8.50;4.30;;;;;;;16.06;66.41;101410.31;4883346;29;20033;-90
2021/12/14 02:12:58;;;;;;;9.93;4.15;;;;;;;16.07;66.36;101421.75;4898576;29;20013;-90
2021/12/14 02:15:28;;;;;;;8.70;4.32;;;;;;;16.02;66.67;101419.47;4898568;29;20084;-90
2021/12/14 02:17:57;;;;;;;12.27;4.38;;;;;;;16.04;66.47;101422.00;4897480;29;20047;-91
2021/12/14 02:20:29;;;;;;;9.75;4.60;;;;;;;16.19;65.79;101423.50;4897842;29;20391;-91
2021/12/14 02:22:56;;;;;;;12.57;4.60;;;;;;;16.22;65.12;101415.31;4897512;29;20028;-90
2021/12/14 02:25:22;;;;;;;13.65;4.32;;;;;;;16.09;66.29;101424.28;4890751;29;20031;-90
2021/12/14 02:27:50;;;;;;;19.70;4.68;;;;;;;16.15;65.50;101422.03;4879764;29;20033;-90
2021/12/14 02:30:28;;;;;;;12.45;4.13;;;;;;;16.34;65.34;101415.34;4879508;29;20025;-90
2021/12/14 02:32:54;;;;;;;14.25;5.22;;;;;;;16.29;65.78;101415.69;4879578;29;20068;-91
2021/12/14 02:35:23;;;;;;;11.95;4.25;;;;;;;16.36;65.34;101416.06;4879801;29;20036;-91
2021/12/14 02:38:10;;;;;;;16.65;4.72;;;;;;;16.30;65.37;101405.94;4879672;29;20084;-90
2021/12/14 02:40:57;;;;;;;11.65;3.90;;;;;;;16.23;65.88;101408.19;4881411;29;20037;-91
2021/12/14 02:43:37;;;;;;;11.88;4.50;;;;;;;16.05;65.66;101413.06;4879924;29;20100;-91
2021/12/14 02:46:30;;;;;;;11.15;4.07;;;;;;;16.27;65.37;101404.34;4879516;29;20025;-91
2021/12/14 02:49:00;;;;;;;10.85;3.85;;;;;;;16.37;65.57;101401.84;4879822;29;20029;-90
2021/12/14 02:51:50;;;;;;;15.63;4.03;;;;;;;16.26;64.90;101405.31;4879064;29;20025;-91
2021/12/14 02:54:24;;;;;;;17.88;4.25;;;;;;;16.35;65.13;101398.47;4878892;29;20237;-91
2021/12/14 02:56:55;;;;;;;9.18;3.95;;;;;;;16.52;65.09;101402.47;4880299;29;20049;-90
2021/12/14 02:59:26;;;;;;;12.35;3.72;;;;;;;16.35;65.24;101399.31;4879458;29;20115;-90
2021/12/14 03:01:55;;;;;;;13.33;4.37;;;;;;;16.36;64.88;101397.50;4879560;29;20136;-90
2021/12/14 03:04:20;;;;;;;15.80;4.63;;;;;;;16.38;64.95;101393.78;4878861;29;20346;-90
2021/12/14 03:06:50;;;;;;;8.65;3.58;;;;;;;16.38;65.41;101395.59;4879153;29;20037;-91
2021/12/14 03:10:35;;;;;;;18.15;5.35;;;;;;;16.27;65.58;101383.13;4879340;29;20417;-91
2021/12/14 03:12:22;;;;;;;21.55;4.88;;;;;;;16.43;64.53;101390.78;4883489;29;20049;-90
2021/12/14 03:14:51;;;;;;;12.57;3.75;;;;;;;16.33;65.63;101392.44;4879252;29;20032;-91
2021/12/14 03:17:17;;;;;;;12.52;4.40;;;;;;;16.34;65.32;101408.22;4879235;29;20041;-90
2021/12/14 03:19:43;;;;;;;15.00;4.72;;;;;;;16.26;65.28;101411.44;4878595;29;20035;-91
2021/12/14 03:22:27;;;;;;;16.92;5.35;;;;;;;16.15;65.45;101411.44;4879386;29;20084;-90
2021/12/14 03:24:52;;;;;;;13.82;4.43;;;;;;;16.22;65.72;101415.31;4879429;29;20036;-91
2021/12/14 03:27:18;;;;;;;14.68;4.50;;;;;;;16.17;65.25;101412.19;4879129;29;20025;-90
2021/12/14 03:29:43;;;;;;;15.93;4.53;;;;;;;16.26;64.93;101403.50;4882961;29;20116;-90
2021/12/14 03:32:09;;;;;;;16.67;5.47;;;;;;;16.38;64.65;101414.13;4882783;29;20384;-90
2021/12/14 03:34:40;;;;;;;11.05;4.22;;;;;;;16.43;64.78;101406.69;4882552;29;20116;-91
2021/12/14 03:37:13;;;;;;;12.40;4.10;;;;;;;16.07;65.33;101403.22;4882792;29;20096;-90
2021/12/14 03:39:43;;;;;;;11.32;4.85;;;;;;;16.22;65.23;101412.66;4882577;29;20034;-90
2021/12/14 03:42:15;;;;;;;14.13;4.40;;;;;;;16.25;65.14;101414.22;4881038;29;20062;-90
2021/12/14 03:44:45;;;;;;;11.07;4.70;;;;;;;16.30;64.99;101405.94;4880953;29;20124;-91
2021/12/14 03:47:33;;;;;;;10.90;4.18;;;;;;;16.35;64.77;101409.06;4882676;29;20368;-90
2021/12/14 03:50:06;;;;;;;12.18;4.78;;;;;;;16.31;64.61;101407.59;4882516;29;20084;-90
2021/12/14 03:52:34;;;;;;;14.35;5.13;;;;;;;16.20;65.26;101413.75;4882274;29;20036;-90
2021/12/14 03:55:14;;;;;;;14.35;4.70;;;;;;;16.39;64.80;101405.22;4885699;29;20032;-90
2021/12/14 03:57:40;;;;;;;12.00;4.53;;;;;;;16.28;64.80;101402.56;4900705;29;20033;-91
2021/12/14 04:00:22;;;;;;;10.50;4.45;;;;;;;16.30;65.18;101416.53;4900496;29;20062;-90
2021/12/14 04:02:47;;;;;;;;;;;;;;;16.42;65.02;101410.28;4900969;29;20488;-90
2021/12/14 04:05:13;;;;;;;15.30;4.60;;;;;;;16.24;65.37;101417.84;4900754;29;19915;-90
2021/12/14 04:07:42;;;;;;;11.13;4.75;;;;;;;16.35;64.87;101417.00;4900768;29;20439;-90
2021/12/14 04:10:21;;;;;;;15.25;4.65;;;;;;;16.24;65.43;101418.69;4899138;29;20111;-91
2021/12/14 04:12:47;;;;;;;11.45;4.45;;;;;;;16.17;65.07;101421.91;4900516;29;20036;-90
2021/12/14 04:15:12;;;;;;;11.38;5.43;;;;;;;16.21;65.32;101421.56;4900658;29;20032;-91
2021/12/14 04:17:38;;;;;;;17.45;5.32;;;;;;;15.87;66.27;101431.19;4901318;29;20483;-91
2021/12/14 04:20:15;;;;;;;14.90;5.22;;;;;;;15.98;65.86;101427.75;4902204;29;20040;-90
2021/12/14 04:22:48;;;;;;;11.38;4.88;;;;;;;16.29;64.87;101431.59;4900381;29;20037;-90
2021/12/14 04:25:15;;;;;;;14.10;5.30;;;;;;;15.78;66.51;101435.38;4895866;29;20551;-90
2021/12/14 04:27:40;;;;;;;13.02;4.65;;;;;;;16.23;65.59;101443.50;4881877;29;20044;-91
2021/12/14 04:30:11;;;;;;;15.27;5.68;;;;;;;16.18;65.05;101439.50;4881824;29;20480;-90
2021/12/14 04:32:37;;;;;;;12.75;5.15;;;;;;;16.12;65.61;101440.81;4881605;29;20478;-91
2021/12/14 04:35:05;;;;;;;14.45;6.13;;;;;;;16.18;65.47;101437.69;4881936;29;20112;-90
2021/12/14 04:37:30;;;;;;;14.07;5.10;;;;;;;16.03;65.83;101452.94;4881766;29;20086;-90
2021/12/14 04:40:15;;;;;;;13.27;4.65;;;;;;;16.15;65.94;101445.88;4880610;29;20033;-90
2021/12/14 04:53:50;;;;;;;14.45;5.68;;;;;;;16.22;65.17;101439.16;4900460;29;20047;-91
2021/12/14 04:56:26;;;;;;;16.05;4.80;;;;;;;16.31;65.16;101439.41;4898518;29;20124;-91
2021/12/14 04:58:57;;;;;;;15.38;4.97;;;;;;;16.41;64.90;101441.25;4900045;29;20052;-91
2021/12/14 05:01:23;;;;;;;17.33;5.50;;;;;;;16.38;64.60;101435.34;4900032;29;20491;-91
2021/12/14 05:03:59;;;;;;;15.77;4.30;;;;;;;16.36;64.80;101434.63;4899980;29;20119;-90
2021/12/14 05:06:33;;;;;;;15.45;5.10;;;;;;;16.31;64.93;101436.75;4899894;29;20025;-91
2021/12/14 05:09:22;;;;;;;17.60;5.47;;;;;;;16.42;64.35;101436.78;4900120;29;20443;-91
2021/12/14 05:11:51;;;;;;;14.68;4.78;;;;;;;16.34;64.60;101437.38;4899342;29;20128;-90
2021/12/14 05:14:16;;;;;;;13.88;5.53;;;;;;;16.34;65.04;101447.16;4898442;29;20091;-90
2021/12/14 05:16:42;;;;;;;12.80;4.60;;;;;;;16.26;65.14;101435.31;4899852;29;20119;-91
2021/12/14 05:19:10;;;;;;;12.25;4.10;;;;;;;16.42;64.36;101434.16;4899672;29;20320;-90
2021/12/14 05:21:41;;;;;;;15.52;4.72;;;;;;;16.40;64.41;101444.84;4899850;29;20088;-90
2021/12/14 05:24:11;;;;;;;16.37;4.83;;;;;;;16.43;64.34;101434.03;4899571;29;20491;-90
2021/12/14 05:26:36;;;;;;;18.92;4.53;;;;;;;16.47;64.36;101445.25;4883321;29;20464;-90
2021/12/14 05:29:03;;;;;;;20.05;4.90;;;;;;;16.41;64.04;101451.00;4879628;29;20058;-90
2021/12/14 05:31:29;;;;;;;20.02;5.35;;;;;;;16.51;63.70;101456.44;4880212;29;20097;-90
2021/12/14 05:33:55;;;;;;;12.55;5.18;;;;;;;16.40;64.11;101454.63;4880590;29;20025;-90
2021/12/14 05:36:22;;;;;;;17.17;4.15;;;;;;;16.47;64.21;101450.56;4880364;29;20098;-90
2021/12/14 05:44:13;;;;;;;7.80;3.47;;;;;;;16.48;63.92;101465.47;4891831;29;20269;-90
2021/12/14 05:46:39;;;;;;;12.00;4.40;;;;;;;16.34;64.05;101457.75;4898703;29;20068;-90
2021/12/14 05:49:08;;;;;;;8.02;3.67;;;;;;;16.51;64.05;101457.31;4898743;29;20055;-90
2021/12/14 05:51:35;;;;;;;15.65;4.32;;;;;;;16.20;64.35;101458.78;4898556;29;20040;-90
2021/12/14 05:54:02;;;;;;;13.10;4.28;;;;;;;16.23;64.58;101459.41;4898543;29;20051;-90
2021/12/14 05:56:30;;;;;;;10.18;3.50;;;;;;;16.20;64.81;101470.22;4897060;29;20037;-90
2021/12/14 05:58:57;;;;;;;10.77;3.63;;;;;;;16.18;65.08;101466.00;4898461;29;20273;-90
2021/12/14 06:01:29;;;;;;;14.82;4.72;;;;;;;16.16;64.91;101467.91;4898354;29;20499;-90
2021/12/14 06:03:56;;;;;;;;;;;;;;;16.20;64.51;101474.69;4898701;29;20036;-90
2021/12/14 06:06:34;;;;;;;22.00;5.97;;;;;;;16.09;65.31;101480.75;4898220;29;19922;-90
2021/12/14 06:09:19;;;;;;;13.07;4.20;;;;;;;16.18;64.84;101477.44;4898288;29;20028;-90
2021/12/14 06:11:48;;;;;;;9.63;3.83;;;;;;;16.20;64.60;101479.97;4883982;29;20120;-90
2021/12/14 06:14:17;;;;;;;8.95;3.28;;;;;;;16.20;65.09;101475.53;4883508;29;20091;-95
2021/12/14 06:16:43;;;;;;;14.15;3.75;;;;;;;16.21;64.40;101477.22;4880115;29;20150;-90
2021/12/14 06:19:30;;;;;;;11.20;3.50;;;;;;;16.25;64.75;101483.13;4879594;29;20052;-90
2021/12/14 06:22:17;;;;;;;9.75;3.25;;;;;;;16.25;64.50;101488.41;4879814;29;20177;-90
2021/12/14 06:24:50;;;;;;;12.18;3.88;;;;;;;16.22;64.76;101480.72;4879447;29;20021;-90
2021/12/14 06:27:20;;;;;;;14.52;3.95;;;;;;;16.33;63.99;101479.91;4881796;29;20151;-90
2021/12/14 06:29:48;;;;;;;14.73;3.58;;;;;;;16.24;64.14;101484.94;4898330;29;20062;-90
2021/12/14 06:32:27;;;;;;;16.40;4.13;;;;;;;16.13;64.59;101492.81;4898493;29;20033;-90
2021/12/14 06:34:58;;;;;;;10.23;3.63;;;;;;;16.19;64.48;101487.09;4898645;29;20111;-90
2021/12/14 06:40:16;;;;;;;11.02;3.17;;;;;;;16.07;64.74;101498.56;4898397;29;19956;-90
2021/12/14 06:42:55;;;;;;;8.52;2.85;;;;;;;16.06;64.33;101500.38;4893593;29;20040;-90
2021/12/14 06:45:30;;;;;;;17.50;3.97;;;;;;;16.00;64.39;101505.31;4879739;29;20061;-90
2021/12/14 06:48:04;;;;;;;12.85;3.50;;;;;;;16.12;64.34;101503.56;4879784;29;20429;-90
2021/12/14 06:50:36;;;;;;;9.32;3.30;;;;;;;16.03;64.60;101503.28;4879798;29;20037;-90
2021/12/14 06:53:09;;;;;;;13.77;3.40;;;;;;;16.03;64.77;101516.53;4879465;29;20057;-89
2021/12/14 06:55:36;;;;;;;19.38;4.60;;;;;;;16.11;64.98;101521.22;4886048;29;20099;-90
2021/12/14 06:58:24;;;;;;;11.93;4.28;;;;;;;16.09;64.33;101501.97;4898255;29;20029;-90
2021/12/14 07:01:01;;;;;;;11.65;3.83;;;;;;;16.11;64.87;101505.34;4898202;29;20035;-90
2021/12/14 07:03:47;;;;;;;13.18;4.30;;;;;;;16.16;64.64;101505.03;4899727;29;20025;-91
2021/12/14 07:06:27;;;;;;;12.82;3.83;;;;;;;16.09;64.96;101519.66;4902111;29;20025;-90
2021/12/14 07:09:07;;;;;;;12.05;4.05;;;;;;;16.09;64.75;101515.22;4902007;29;20391;-90
2021/12/14 07:11:33;;;;;;;9.40;4.10;;;;;;;16.07;64.77;101506.53;4887110;29;20025;-90
2021/12/14 07:14:02;;;;;;;12.27;3.80;;;;;;;16.11;64.80;101508.00;4882883;29;20543;-90
2021/12/14 07:16:32;;;;;;;11.55;3.88;;;;;;;16.09;64.85;101504.59;4882880;29;20494;-90
2021/12/14 07:19:02;;;;;;;15.05;4.45;;;;;;;16.09;64.90;101501.13;4883086;29;20037;-90
2021/12/14 07:21:47;;;;;;;15.95;4.15;;;;;;;15.97;65.08;101516.13;4883985;29;20139;-90
2021/12/14 07:24:21;;;;;;;18.30;3.80;;;;;;;15.93;65.54;101520.78;4882670;29;20056;-90
2021/12/14 07:27:10;;;;;;;12.52;4.10;;;;;;;16.08;65.17;101524.13;4883192;29;20440;-91
2021/12/14 07:29:35;;;;;;;15.90;3.80;;;;;;;16.16;64.69;101516.44;4882753;29;20029;-91
2021/12/14 07:32:01;;;;;;;12.57;4.78;;;;;;;16.13;64.81;101529.91;4883073;29;20425;-91
2021/12/14 07:34:26;;;;;;;7.88;3.42;;;;;;;16.12;64.88;101533.53;4881367;29;20032;-91
2021/12/14 07:36:52;;;;;;;12.30;3.80;;;;;;;16.17;65.34;101534.06;4885978;29;20044;-90
2021/12/14 07:39:20;;;;;;;8.48;3.35;;;;;;;16.10;65.46;101530.16;4901548;29;20025;-90
2021/12/14 07:41:47;;;;;;;10.63;3.60;;;;;;;16.14;65.14;101530.78;4900181;29;20020;-89
2021/12/14 07:44:32;;;;;;;13.70;3.40;;;;;;;16.04;65.30;101522.66;4900025;29;20064;-91
2021/12/14 07:47:06;;;;;;;9.98;3.55;;;;;;;16.02;65.74;101525.41;4900946;29;20043;-92
2021/12/14 07:49:36;;;;;;;8.40;3.83;;;;;;;16.09;65.40;101528.44;4901142;29;20100;-91
2021/12/14 07:52:08;;;;;;;8.95;2.80;;;;;;;16.10;65.47;101530.16;4893935;29;20029;-90
2021/12/14 07:54:41;;;;;;;6.70;2.60;;;;;;;16.15;65.22;101535.09;4881707;29;20443;-90
2021/12/14 07:57:31;;;;;;;8.18;2.88;;;;;;;16.01;65.64;101539.59;4882227;29;20107;-91
2021/12/14 08:00:06;;;;;;;5.93;3.20;;;;;;;16.08;65.99;101534.72;4881865;29;20052;-91
2021/12/14 08:02:33;;;;;;;11.52;4.05;;;;;;;16.15;65.27;101535.09;4883791;29;20036;-96
2021/12/14 08:05:00;;;;;;;10.13;3.78;;;;;;;16.03;65.60;101542.16;4888684;29;20112;-95
2021/12/14 08:07:39;;;;;;;12.70;4.15;;;;;;;16.12;64.83;101538.84;4901765;29;20088;-96
2021/12/14 08:10:27;;;;;;;8.65;3.95;;;;;;;16.05;65.96;101545.53;4914450;29;20028;-96
2021/12/14 08:12:56;;;;;;;9.00;3.83;;;;;;;15.98;65.71;101534.53;5217468;23;20077;-96
2021/12/14 08:15:30;;;;;;;11.88;4.10;;;;;;;16.07;65.74;101543.63;4888050;29;20471;-90
2021/12/14 08:18:05;;;;;;;7.75;3.58;;;;;;;16.16;65.40;101552.72;4880829;29;20239;-91
2021/12/14 08:20:31;;;;;;;16.45;4.00;;;;;;;16.14;65.36;101555.47;4876442;29;20395;-89
2021/12/14 08:23:10;;;;;;;18.13;4.78;;;;;;;15.79;67.08;101545.63;4872956;29;20478;-91
2021/12/14 08:25:39;;;;;;;11.55;3.90;;;;;;;15.75;66.44;101548.59;4875129;29;21229;-91
2021/12/14 08:28:06;;;;;;;9.35;3.63;;;;;;;15.74;66.63;101550.41;4876005;29;20078;-90
2021/12/14 08:30:34;;;;;;;11.15;3.95;;;;;;;15.78;66.54;101556.34;4876553;29;20040;-90
2021/12/14 08:33:00;;;;;;;12.93;3.75;;;;;;;15.85;66.47;101554.94;4871925;29;20036;-91
2021/12/14 08:35:26;;;;;;;13.65;4.10;;;;;;;15.77;66.44;101558.13;4876664;29;20025;-90
2021/12/14 08:37:58;;;;;;;8.75;3.25;;;;;;;15.82;66.18;101560.47;4875336;29;20025;-90
2021/12/14 08:40:32;;;;;;;8.07;3.30;;;;;;;15.84;66.63;101559.38;4875613;29;20029;-90
2021/12/14 08:43:03;;;;;;;13.02;4.47;;;;;;;15.78;66.75;101562.47;4873610;29;20040;-90
2021/12/14 08:45:48;;;;;;;11.65;4.40;;;;;;;15.83;66.44;101562.97;4875157;29;20029;-91
2021/12/14 08:48:19;;;;;;;8.27;3.72;;;;;;;15.94;66.17;101574.63;4873256;29;20508;-90
2021/12/14 08:50:53;;;;;;;11.95;4.22;;;;;;;15.96;66.17;101567.41;4872664;29;20104;-91
2021/12/14 08:53:21;;;;;;;9.70;3.83;;;;;;;15.97;66.46;101575.22;4872695;29;20033;-91
2021/12/14 08:55:51;;;;;;;15.45;4.80;;;;;;;16.01;65.63;101576.69;4874473;29;20021;-90
2021/12/14 08:58:17;;;;;;;14.82;3.92;;;;;;;16.02;65.60;101583.69;4872447;29;20084;-92
2021/12/14 09:00:47;;;;;;;10.90;4.15;;;;;;;16.12;65.67;101586.53;4872745;29;20051;-92
2021/12/14 09:03:20;;;;;;;9.30;3.95;;;;;;;16.05;65.81;101587.91;4874994;29;20044;-91
2021/12/14 09:05:49;;;;;;;11.32;4.10;;;;;;;16.14;65.54;101587.25;4880871;29;20496;-91
2021/12/14 09:08:17;;;;;;;9.93;3.50;;;;;;;16.18;65.02;101594.03;4882837;29;20021;-91
2021/12/14 09:10:46;;;;;;;11.93;3.70;;;;;;;16.28;64.75;101596.00;4881518;29;20395;-91
2021/12/14 09:13:13;;;;;;;10.52;3.92;;;;;;;16.33;65.34;101604.47;4879805;29;20395;-91
2021/12/14 09:15:50;;;;;;;10.55;3.20;;;;;;;16.21;65.71;101585.88;4862666;29;20097;-91
2021/12/14 09:18:18;;;;;;;16.67;3.75;;;;;;;16.32;65.48;101600.13;4865603;29;20201;-91
2021/12/14 09:20:46;;;;;;;14.77;3.92;;;;;;;16.09;66.00;101599.16;4880778;29;20124;-91
2021/12/14 09:23:16;;;;;;;11.63;3.55;;;;;;;16.25;65.74;101600.59;4880591;29;20432;-91
2021/12/14 09:25:42;;;;;;;7.72;3.58;;;;;;;16.31;65.34;101603.72;4879715;29;20108;-92
2021/12/14 09:28:09;;;;;;;13.23;4.65;;;;;;;16.23;65.29;101605.16;4880739;29;20083;-91
2021/12/14 09:30:39;;;;;;;9.88;3.53;;;;;;;16.14;65.63;101604.97;4878080;29;20068;-92
2021/12/14 09:33:05;;;;;;;9.73;4.03;;;;;;;16.24;65.46;101606.81;4879706;29;20025;-92
2021/12/14 09:35:35;;;;;;;8.93;3.70;;;;;;;16.34;65.54;101606.16;4879153;29;20077;-92
2021/12/14 09:38:02;;;;;;;8.75;4.18;;;;;;;16.33;65.51;101612.41;4880812;29;20036;-90
2021/12/14 09:40:37;;;;;;;13.85;3.67;;;;;;;16.34;65.75;101604.34;4883655;29;20503;-91
2021/12/14 09:43:03;;;;;;;14.50;5.47;;;;;;;16.39;65.42;101606.66;4880689;29;20048;-91
2021/12/14 09:45:42;;;;;;;14.68;4.20;;;;;;;16.39;65.52;101612.81;4882085;29;20025;-91
2021/12/14 09:48:10;;;;;;;10.25;3.63;;;;;;;16.31;65.56;101611.69;4880158;29;20041;-94
2021/12/14 09:50:37;;;;;;;10.98;3.35;;;;;;;16.35;65.71;101616.66;4880641;29;20021;-91
2021/12/14 09:53:06;;;;;;;7.15;3.47;;;;;;;16.47;64.74;101620.22;4880332;29;20039;-91
2021/12/14 09:55:34;;;;;;;11.95;3.83;;;;;;;16.52;65.24;101623.34;4881733;29;20502;-93
2021/12/14 09:58:05;;;;;;;5.50;3.85;;;;;;;16.21;65.87;101627.41;4881367;29;20395;-94
2021/12/14 10:00:54;;;;;;;10.75;3.72;;;;;;;16.34;65.77;101630.03;4881764;29;20024;-95
2021/12/14 10:03:20;;;;;;;9.60;3.40;;;;;;;16.54;64.71;101625.91;4878576;29;20514;-93
2021/12/14 10:05:53;;;;;;;10.43;3.58;;;;;;;16.50;65.72;101630.56;4875296;29;20031;-94
2021/12/14 10:08:25;;;;;;;10.25;3.17;;;;;;;16.63;64.88;101633.19;4880999;29;20487;-95
2021/12/14 10:11:23;;;;;;;9.30;3.25;;;;;;;16.59;65.40;101632.56;4877468;29;20040;-95
2021/12/14 10:13:50;;;;;;;9.55;3.05;;;;;;;16.53;65.67;101640.09;4871426;29;20017;-96
2021/12/14 10:16:16;;;;;;;10.02;3.55;;;;;;;16.59;65.36;101640.50;4894306;29;20039;-96
2021/12/14 10:18:51;;;;;;;11.18;3.63;;;;;;;16.59;65.33;101637.88;4887372;29;20033;-95
2021/12/14 10:21:21;;;;;;;12.35;4.07;;;;;;;16.43;65.53;101635.50;4882876;29;20399;-94
2021/12/14 10:23:49;;;;;;;9.50;4.43;;;;;;;16.51;65.80;101636.72;4883758;29;20525;-93
2021/12/14 10:26:17;;;;;;;13.77;3.25;;;;;;;16.55;65.67;101641.72;4879735;29;20029;-95
2021/12/14 10:28:46;;;;;;;8.57;2.92;;;;;;;16.57;65.43;101637.13;4881477;29;20044;-94
2021/12/14 10:31:20;;;;;;;11.85;3.00;;;;;;;16.58;64.97;101641.47;4878285;29;20124;-93
2021/12/14 10:33:46;;;;;;;10.23;2.97;;;;;;;16.56;65.77;101650.50;4879298;29;20047;-95
2021/12/14 10:36:29;;;;;;;6.75;3.10;;;;;;;16.74;65.21;101645.63;4877844;29;20222;-95
2021/12/14 10:39:23;;;;;;;6.65;2.92;;;;;;;16.62;65.42;101648.22;4879514;29;20029;-96
2021/12/14 10:44:40;;;;;;;10.05;3.63;;;;;;;16.75;64.69;101652.66;4873250;29;20041;-95
2021/12/14 10:47:08;;;;;;;9.90;2.45;;;;;;;16.84;64.28;101654.63;4899074;29;20249;-96
2021/12/14 10:49:34;;;;;;;16.42;2.95;;;;;;;16.71;65.45;101659.13;4883345;29;20024;-95
2021/12/14 10:52:06;;;;;;;7.70;2.40;;;;;;;16.76;65.53;101651.66;4889735;29;20029;-96
2021/12/14 10:54:32;;;;;;;7.63;2.63;;;;;;;16.71;65.54;101656.50;4885827;29;20041;-94
2021/12/14 10:57:05;;;;;;;9.43;2.67;;;;;;;16.51;66.26;101642.03;4893970;29;20053;-96
2021/12/14 10:59:35;;;;;;;11.38;2.88;;;;;;;16.74;65.12;101648.28;4879968;29;20060;-95
2021/12/14 11:02:01;;;;;;;6.13;2.03;;;;;;;16.82;65.04;101646.81;4883343;29;20407;-96
2021/12/14 11:04:53;;;;;;;10.30;2.17;;;;;;;16.84;65.50;101647.53;4888598;29;20040;-95
2021/12/14 11:07:28;;;;;;;3.58;2.22;;;;;;;16.95;65.33;101643.22;4861443;29;20044;-94
2021/12/14 11:10:05;;;;;;;6.22;3.03;;;;;;;16.65;65.55;101641.88;4870345;29;20044;-95
2021/12/14 11:12:36;;;;;;;7.68;2.45;;;;;;;16.79;65.37;101641.69;4880932;29;20026;-96
2021/12/14 11:15:19;;;;;;;9.05;3.10;;;;;;;16.83;65.54;101643.19;4891279;29;20479;-94
2021/12/14 11:20:52;;;;;;;7.38;2.28;;;;;;;17.04;64.70;101640.72;4875769;29;20503;-94
2021/12/14 11:23:36;;;;;;;6.00;2.42;;;;;;;17.17;64.58;101639.78;4879018;29;20037;-94
2021/12/14 11:26:06;;;;;;;8.93;2.95;;;;;;;17.22;64.64;101632.34;4879406;29;20033;-95
2021/12/14 11:28:37;;;;;;;7.60;2.58;;;;;;;17.26;64.43;101639.09;4877361;29;20021;-93
2021/12/14 11:31:25;;;;;;;5.75;2.40;;;;;;;17.36;64.14;101639.25;4870790;29;20025;-93
2021/12/14 11:34:00;;;;;;;8.20;2.85;;;;;;;17.29;64.47;101638.84;4870736;29;20013;-93
2021/12/14 11:36:33;;;;;;;5.85;2.13;;;;;;;17.43;64.29;101633.31;4871139;29;20036;-93
2021/12/14 11:39:07;;;;;;;6.20;2.38;;;;;;;17.49;63.31;101639.13;4872967;29;20029;-94
2021/12/14 11:41:47;;;;;;;5.60;2.35;;;;;;;17.29;64.14;101638.00;4874931;29;20044;-94
2021/12/14 11:44:22;;;;;;;5.50;2.60;;;;;;;17.27;64.23;101634.63;4876196;29;20052;-93
2021/12/14 11:47:03;;;;;;;5.95;2.47;;;;;;;17.16;64.68;101630.13;4878144;29;20017;-93
2021/12/14 11:49:43;;;;;;;11.90;2.83;;;;;;;17.15;65.22;101621.31;4875063;29;20029;-94
2021/12/14 11:52:10;;;;;;;5.75;2.47;;;;;;;17.26;64.79;101628.47;4882131;29;20495;-93
2021/12/14 11:54:43;;;;;;;5.88;2.53;;;;;;;17.30;65.11;101623.75;4881241;29;20040;-93
2021/12/14 11:57:10;;;;;;;6.25;2.65;;;;;;;17.40;64.42;101624.75;4879982;29;20020;-94
2021/12/14 11:59:35;;;;;;;9.10;2.25;;;;;;;17.17;64.83;101618.56;4884395;29;20028;-93
2021/12/14 12:02:02;;;;;;;8.52;2.72;;;;;;;17.08;64.40;101614.81;4879705;29;20044;-94
2021/12/14 12:04:36;;;;;;;6.10;2.45;;;;;;;17.21;64.48;101620.00;4879322;29;20085;-93
2021/12/14 12:09:41;;;;;;;6.22;2.08;;;;;;;17.29;64.38;101614.94;4880391;29;20097;-95
2021/12/14 12:12:11;;;;;;;10.10;2.47;;;;;;;17.48;64.18;101618.84;4876361;29;20037;-93
2021/12/14 12:14:49;;;;;;;4.43;2.30;;;;;;;17.48;63.77;101618.84;4882509;29;20028;-92
2021/12/14 12:17:22;;;;;;;9.23;2.35;;;;;;;17.22;64.76;101619.06;4881618;29;20273;-96